Terminal Aerodrome Forecast
Issued by NWS

Home | Current Version | Previous Version | Text Only | Print | Product List | Glossary On
Versions: 1 2 3 4 5 6 7 8 9 10 11 12 13 14 15 16 17 18 19 20 21 22
000
FTUS43 KDLH 251141
TAFHIB
TAF
KHIB 251141Z 2512/2612 VRB03KT 6SM BR SKC
      TEMPO 2512/2513 1SM BR
     FM251400 27005KT P6SM BKN025
     FM251600 28010G19KT P6SM VCSH SCT025 BKN030
     FM252100 30012G20KT P6SM VCSH BKN035
     FM260100 31007KT P6SM SCT040
     FM260700 VRB03KT 3SM BR SCT060
      TEMPO 2608/2612 1SM BR BKN008=

USA.gov is the U.S. government's official web portal to all federal, state and local government web resources and services.